sensor_id;sensor_type;location;lat;lon;timestamp;temperature;humidity
31455;DHT22;18084;53.028;8.834;2023-03-11T00:00:17;0.50;99.90
31455;DHT22;18084;53.028;8.834;2023-03-11T00:02:44;0.50;99.90
31455;DHT22;18084;53.028;8.834;2023-03-11T00:05:25;0.40;99.90
31455;DHT22;18084;53.028;8.834;2023-03-11T00:07:51;0.50;99.90
31455;DHT22;18084;53.028;8.834;2023-03-11T00:10:21;0.50;99.90
31455;DHT22;18084;53.028;8.834;2023-03-11T00:12:47;0.40;99.90
31455;DHT22;18084;53.028;8.834;2023-03-11T00:15:13;0.50;99.90
31455;DHT22;18084;53.028;8.834;2023-03-11T00:17:39;0.40;99.90
31455;DHT22;18084;53.028;8.834;2023-03-11T00:20:06;0.40;99.90
31455;DHT22;18084;53.028;8.834;2023-03-11T00:22:32;0.40;99.90
31455;DHT22;18084;53.028;8.834;2023-03-11T00:24:58;0.40;99.90
31455;DHT22;18084;53.028;8.834;2023-03-11T00:27:24;0.40;99.90
31455;DHT22;18084;53.028;8.834;2023-03-11T00:29:49;0.30;99.90
31455;DHT22;18084;53.028;8.834;2023-03-11T00:32:15;0.50;99.90
31455;DHT22;18084;53.028;8.834;2023-03-11T00:34:41;0.40;99.90
31455;DHT22;18084;53.028;8.834;2023-03-11T00:37:07;0.40;99.90
31455;DHT22;18084;53.028;8.834;2023-03-11T00:39:33;0.30;99.90
31455;DHT22;18084;53.028;8.834;2023-03-11T00:41:58;0.50;99.90
31455;DHT22;18084;53.028;8.834;2023-03-11T00:44:24;0.40;99.90
31455;DHT22;18084;53.028;8.834;2023-03-11T00:46:49;-0.60;99.90
31455;DHT22;18084;53.028;8.834;2023-03-11T00:49:15;0.40;99.90
31455;DHT22;18084;53.028;8.834;2023-03-11T00:51:41;0.30;99.90
31455;DHT22;18084;53.028;8.834;2023-03-11T00:54:06;0.50;99.90
31455;DHT22;18084;53.028;8.834;2023-03-11T00:56:32;0.20;99.90
31455;DHT22;18084;53.028;8.834;2023-03-11T00:58:57;0.40;99.90
31455;DHT22;18084;53.028;8.834;2023-03-11T01:01:23;0.30;99.90
31455;DHT22;18084;53.028;8.834;2023-03-11T01:03:48;0.40;99.90
31455;DHT22;18084;53.028;8.834;2023-03-11T01:06:14;0.40;99.90
31455;DHT22;18084;53.028;8.834;2023-03-11T01:08:39;0.40;99.90
31455;DHT22;18084;53.028;8.834;2023-03-11T01:11:06;2.30;99.90
31455;DHT22;18084;53.028;8.834;2023-03-11T01:13:32;0.40;99.90
31455;DHT22;18084;53.028;8.834;2023-03-11T01:15:58;0.40;99.90
31455;DHT22;18084;53.028;8.834;2023-03-11T01:18:24;0.30;99.90
31455;DHT22;18084;53.028;8.834;2023-03-11T01:20:50;0.30;99.90
31455;DHT22;18084;53.028;8.834;2023-03-11T01:23:17;0.30;99.90
31455;DHT22;18084;53.028;8.834;2023-03-11T01:25:43;0.20;99.90
31455;DHT22;18084;53.028;8.834;2023-03-11T01:28:10;0.30;99.90
31455;DHT22;18084;53.028;8.834;2023-03-11T01:30:38;0.30;99.90
31455;DHT22;18084;53.028;8.834;2023-03-11T01:33:06;0.30;99.90
31455;DHT22;18084;53.028;8.834;2023-03-11T01:35:32;0.30;99.90
31455;DHT22;18084;53.028;8.834;2023-03-11T01:37:59;0.40;99.90
31455;DHT22;18084;53.028;8.834;2023-03-11T01:40:33;0.40;99.90
31455;DHT22;18084;53.028;8.834;2023-03-11T01:43:01;0.30;99.90
31455;DHT22;18084;53.028;8.834;2023-03-11T01:48:14;0.20;99.90
31455;DHT22;18084;53.028;8.834;2023-03-11T01:50:48;0.10;99.90
31455;DHT22;18084;53.028;8.834;2023-03-11T01:53:15;0.20;99.90
31455;DHT22;18084;53.028;8.834;2023-03-11T01:55:42;0.20;99.90
31455;DHT22;18084;53.028;8.834;2023-03-11T01:58:13;0.20;99.90
31455;DHT22;18084;53.028;8.834;2023-03-11T02:00:41;0.90;99.90
31455;DHT22;18084;53.028;8.834;2023-03-11T02:03:35;0.20;99.90
31455;DHT22;18084;53.028;8.834;2023-03-11T02:06:04;0.20;99.90
31455;DHT22;18084;53.028;8.834;2023-03-11T02:08:31;0.20;99.90
31455;DHT22;18084;53.028;8.834;2023-03-11T02:11:00;0.20;99.90
31455;DHT22;18084;53.028;8.834;2023-03-11T02:13:26;0.30;99.90
31455;DHT22;18084;53.028;8.834;2023-03-11T02:15:52;0.20;99.90
31455;DHT22;18084;53.028;8.834;2023-03-11T02:18:18;0.30;99.90
31455;DHT22;18084;53.028;8.834;2023-03-11T02:20:53;0.20;99.90
31455;DHT22;18084;53.028;8.834;2023-03-11T02:23:24;0.20;99.90
31455;DHT22;18084;53.028;8.834;2023-03-11T02:26:09;0.20;99.90
31455;DHT22;18084;53.028;8.834;2023-03-11T02:28:37;0.20;99.90
31455;DHT22;18084;53.028;8.834;2023-03-11T02:31:05;0.20;99.90
31455;DHT22;18084;53.028;8.834;2023-03-11T02:33:31;0.20;99.90
31455;DHT22;18084;53.028;8.834;2023-03-11T02:35:59;0.20;99.90
31455;DHT22;18084;53.028;8.834;2023-03-11T02:38:24;0.20;99.90
31455;DHT22;18084;53.028;8.834;2023-03-11T02:40:59;1.70;99.90
31455;DHT22;18084;53.028;8.834;2023-03-11T02:43:45;0.40;99.90
31455;DHT22;18084;53.028;8.834;2023-03-11T02:46:11;0.10;99.90
31455;DHT22;18084;53.028;8.834;2023-03-11T02:48:38;0.20;99.90
31455;DHT22;18084;53.028;8.834;2023-03-11T02:51:04;1.40;99.90
31455;DHT22;18084;53.028;8.834;2023-03-11T02:53:35;0.20;99.90
31455;DHT22;18084;53.028;8.834;2023-03-11T02:56:02;0.00;99.90
31455;DHT22;18084;53.028;8.834;2023-03-11T02:58:28;0.00;99.90
31455;DHT22;18084;53.028;8.834;2023-03-11T03:00:53;0.00;99.90
31455;DHT22;18084;53.028;8.834;2023-03-11T03:03:19;-0.10;99.90
31455;DHT22;18084;53.028;8.834;2023-03-11T03:05:45;-0.20;99.90
31455;DHT22;18084;53.028;8.834;2023-03-11T03:08:10;-0.20;99.90
31455;DHT22;18084;53.028;8.834;2023-03-11T03:10:36;-0.20;99.90
31455;DHT22;18084;53.028;8.834;2023-03-11T03:13:01;1.80;99.90
31455;DHT22;18084;53.028;8.834;2023-03-11T03:15:27;-0.30;99.90
31455;DHT22;18084;53.028;8.834;2023-03-11T03:17:53;0.80;99.90
31455;DHT22;18084;53.028;8.834;2023-03-11T03:20:18;-0.20;99.90
31455;DHT22;18084;53.028;8.834;2023-03-11T03:22:47;-0.10;99.90
31455;DHT22;18084;53.028;8.834;2023-03-11T03:25:13;-0.10;99.90
31455;DHT22;18084;53.028;8.834;2023-03-11T03:27:38;-0.10;99.90
31455;DHT22;18084;53.028;8.834;2023-03-11T03:30:05;0.10;99.90
31455;DHT22;18084;53.028;8.834;2023-03-11T03:32:31;0.10;99.90
31455;DHT22;18084;53.028;8.834;2023-03-11T03:34:57;0.10;99.90
31455;DHT22;18084;53.028;8.834;2023-03-11T03:37:27;0.20;99.90
31455;DHT22;18084;53.028;8.834;2023-03-11T03:39:56;0.20;99.90
31455;DHT22;18084;53.028;8.834;2023-03-11T03:42:22;0.20;99.90
31455;DHT22;18084;53.028;8.834;2023-03-11T03:44:50;0.20;99.90
31455;DHT22;18084;53.028;8.834;2023-03-11T03:47:16;0.30;99.90
31455;DHT22;18084;53.028;8.834;2023-03-11T03:49:41;0.20;99.90
31455;DHT22;18084;53.028;8.834;2023-03-11T03:52:07;0.20;99.90
31455;DHT22;18084;53.028;8.834;2023-03-11T03:54:33;0.10;99.90
31455;DHT22;18084;53.028;8.834;2023-03-11T03:56:59;0.10;99.90
31455;DHT22;18084;53.028;8.834;2023-03-11T03:59:24;0.20;99.90
31455;DHT22;18084;53.028;8.834;2023-03-11T04:01:50;0.10;99.90
31455;DHT22;18084;53.028;8.834;2023-03-11T04:04:16;0.20;99.90
31455;DHT22;18084;53.028;8.834;2023-03-11T04:06:41;0.20;99.90
31455;DHT22;18084;53.028;8.834;2023-03-11T04:09:10;0.10;99.90
31455;DHT22;18084;53.028;8.834;2023-03-11T04:11:36;0.20;99.90
31455;DHT22;18084;53.028;8.834;2023-03-11T04:14:03;0.10;99.90
31455;DHT22;18084;53.028;8.834;2023-03-11T04:16:29;0.10;99.90
31455;DHT22;18084;53.028;8.834;2023-03-11T04:18:55;-0.10;99.90
31455;DHT22;18084;53.028;8.834;2023-03-11T04:21:21;0.20;99.90
31455;DHT22;18084;53.028;8.834;2023-03-11T04:23:46;1.90;99.90
31455;DHT22;18084;53.028;8.834;2023-03-11T04:26:12;0.30;99.90
31455;DHT22;18084;53.028;8.834;2023-03-11T04:28:37;0.20;99.90
31455;DHT22;18084;53.028;8.834;2023-03-11T04:31:03;0.20;99.90
31455;DHT22;18084;53.028;8.834;2023-03-11T04:33:29;0.10;99.90
31455;DHT22;18084;53.028;8.834;2023-03-11T04:35:55;0.10;99.90
31455;DHT22;18084;53.028;8.834;2023-03-11T04:38:20;0.10;99.90
31455;DHT22;18084;53.028;8.834;2023-03-11T04:40:46;0.20;99.90
31455;DHT22;18084;53.028;8.834;2023-03-11T04:43:11;0.30;99.90
31455;DHT22;18084;53.028;8.834;2023-03-11T04:45:38;0.20;99.90
31455;DHT22;18084;53.028;8.834;2023-03-11T04:48:04;0.10;99.90
31455;DHT22;18084;53.028;8.834;2023-03-11T04:50:30;0.10;99.90
31455;DHT22;18084;53.028;8.834;2023-03-11T04:52:55;0.10;99.90
31455;DHT22;18084;53.028;8.834;2023-03-11T04:55:21;0.00;99.90
31455;DHT22;18084;53.028;8.834;2023-03-11T04:57:47;-0.10;99.90
31455;DHT22;18084;53.028;8.834;2023-03-11T05:00:13;0.00;99.90
31455;DHT22;18084;53.028;8.834;2023-03-11T05:02:41;0.00;99.90
31455;DHT22;18084;53.028;8.834;2023-03-11T05:05:08;-0.10;99.90
31455;DHT22;18084;53.028;8.834;2023-03-11T05:07:35;-0.10;99.90
31455;DHT22;18084;53.028;8.834;2023-03-11T05:10:01;-0.10;99.90
31455;DHT22;18084;53.028;8.834;2023-03-11T05:12:27;-0.10;99.90
31455;DHT22;18084;53.028;8.834;2023-03-11T05:14:53;-0.10;99.90
31455;DHT22;18084;53.028;8.834;2023-03-11T05:17:18;-0.10;99.90
31455;DHT22;18084;53.028;8.834;2023-03-11T05:19:44;-0.10;99.90
31455;DHT22;18084;53.028;8.834;2023-03-11T05:22:11;-0.20;99.90
31455;DHT22;18084;53.028;8.834;2023-03-11T05:24:36;-0.20;99.90
31455;DHT22;18084;53.028;8.834;2023-03-11T05:27:03;-0.10;99.90
31455;DHT22;18084;53.028;8.834;2023-03-11T05:29:29;-0.10;99.90
31455;DHT22;18084;53.028;8.834;2023-03-11T05:31:55;-0.10;99.90
31455;DHT22;18084;53.028;8.834;2023-03-11T05:34:21;-0.70;99.90
31455;DHT22;18084;53.028;8.834;2023-03-11T05:36:47;-0.30;99.90
31455;DHT22;18084;53.028;8.834;2023-03-11T05:39:13;-0.40;99.90
31455;DHT22;18084;53.028;8.834;2023-03-11T05:41:39;-0.40;99.90
31455;DHT22;18084;53.028;8.834;2023-03-11T05:44:05;-0.40;99.90
31455;DHT22;18084;53.028;8.834;2023-03-11T05:46:30;-0.60;99.90
31455;DHT22;18084;53.028;8.834;2023-03-11T05:48:58;-0.40;99.90
31455;DHT22;18084;53.028;8.834;2023-03-11T05:51:23;-0.60;99.90
31455;DHT22;18084;53.028;8.834;2023-03-11T05:53:49;-0.60;99.90
31455;DHT22;18084;53.028;8.834;2023-03-11T05:56:16;-0.70;99.90
31455;DHT22;18084;53.028;8.834;2023-03-11T05:58:42;-0.80;99.90
31455;DHT22;18084;53.028;8.834;2023-03-11T06:01:12;-0.80;99.90
31455;DHT22;18084;53.028;8.834;2023-03-11T06:03:39;-0.80;99.90
31455;DHT22;18084;53.028;8.834;2023-03-11T06:06:08;-1.10;99.90
31455;DHT22;18084;53.028;8.834;2023-03-11T06:08:35;-0.80;99.90
31455;DHT22;18084;53.028;8.834;2023-03-11T06:11:02;-0.80;99.90
31455;DHT22;18084;53.028;8.834;2023-03-11T06:13:27;-0.90;99.90
31455;DHT22;18084;53.028;8.834;2023-03-11T06:15:53;-0.90;99.90
31455;DHT22;18084;53.028;8.834;2023-03-11T06:18:18;-0.90;99.90
31455;DHT22;18084;53.028;8.834;2023-03-11T06:20:44;-1.00;99.90
31455;DHT22;18084;53.028;8.834;2023-03-11T06:23:12;-0.90;99.90
31455;DHT22;18084;53.028;8.834;2023-03-11T06:25:38;-1.10;99.90
31455;DHT22;18084;53.028;8.834;2023-03-11T06:28:04;-1.10;99.90
31455;DHT22;18084;53.028;8.834;2023-03-11T06:30:29;0.60;99.90
31455;DHT22;18084;53.028;8.834;2023-03-11T06:32:55;-0.80;99.90
31455;DHT22;18084;53.028;8.834;2023-03-11T06:35:20;-0.90;99.90
31455;DHT22;18084;53.028;8.834;2023-03-11T06:37:46;-0.70;99.90
31455;DHT22;18084;53.028;8.834;2023-03-11T06:40:12;-0.70;99.90
31455;DHT22;18084;53.028;8.834;2023-03-11T06:42:38;-0.70;99.90
31455;DHT22;18084;53.028;8.834;2023-03-11T06:45:04;-0.70;99.90
31455;DHT22;18084;53.028;8.834;2023-03-11T06:47:30;-0.70;99.90
31455;DHT22;18084;53.028;8.834;2023-03-11T06:49:56;-0.80;99.90
31455;DHT22;18084;53.028;8.834;2023-03-11T06:52:21;-0.60;99.90
31455;DHT22;18084;53.028;8.834;2023-03-11T06:54:47;-0.50;99.90
31455;DHT22;18084;53.028;8.834;2023-03-11T06:57:12;-0.20;99.90
31455;DHT22;18084;53.028;8.834;2023-03-11T06:59:38;-0.10;99.90
31455;DHT22;18084;53.028;8.834;2023-03-11T07:02:04;0.00;99.90
31455;DHT22;18084;53.028;8.834;2023-03-11T07:04:31;0.00;99.90
31455;DHT22;18084;53.028;8.834;2023-03-11T07:06:57;0.10;99.90
31455;DHT22;18084;53.028;8.834;2023-03-11T07:09:22;1.80;99.90
31455;DHT22;18084;53.028;8.834;2023-03-11T07:11:52;0.00;99.90
31455;DHT22;18084;53.028;8.834;2023-03-11T07:14:18;0.10;99.90
31455;DHT22;18084;53.028;8.834;2023-03-11T07:16:44;-0.10;99.90
31455;DHT22;18084;53.028;8.834;2023-03-11T07:19:10;0.10;99.90
31455;DHT22;18084;53.028;8.834;2023-03-11T07:21:36;0.00;99.90
31455;DHT22;18084;53.028;8.834;2023-03-11T07:24:02;0.00;99.90
31455;DHT22;18084;53.028;8.834;2023-03-11T07:26:29;0.00;99.90
31455;DHT22;18084;53.028;8.834;2023-03-11T07:28:56;0.10;99.90
31455;DHT22;18084;53.028;8.834;2023-03-11T07:31:30;0.10;99.90
31455;DHT22;18084;53.028;8.834;2023-03-11T07:33:58;0.00;99.90
31455;DHT22;18084;53.028;8.834;2023-03-11T07:36:25;0.20;99.90
31455;DHT22;18084;53.028;8.834;2023-03-11T07:38:59;0.30;99.90
31455;DHT22;18084;53.028;8.834;2023-03-11T07:41:26;0.50;99.90
31455;DHT22;18084;53.028;8.834;2023-03-11T07:43:54;0.60;99.90
31455;DHT22;18084;53.028;8.834;2023-03-11T07:46:21;0.60;99.90
31455;DHT22;18084;53.028;8.834;2023-03-11T07:48:47;0.60;99.90
31455;DHT22;18084;53.028;8.834;2023-03-11T07:51:22;0.50;99.90
31455;DHT22;18084;53.028;8.834;2023-03-11T07:53:48;0.50;99.90
31455;DHT22;18084;53.028;8.834;2023-03-11T07:56:16;0.40;99.90
31455;DHT22;18084;53.028;8.834;2023-03-11T07:58:42;0.50;99.90
31455;DHT22;18084;53.028;8.834;2023-03-11T08:01:10;0.50;99.90
31455;DHT22;18084;53.028;8.834;2023-03-11T08:03:37;0.70;99.90
31455;DHT22;18084;53.028;8.834;2023-03-11T08:06:10;0.70;99.90
31455;DHT22;18084;53.028;8.834;2023-03-11T08:08:36;0.80;99.90
31455;DHT22;18084;53.028;8.834;2023-03-11T08:11:03;0.90;99.90
31455;DHT22;18084;53.028;8.834;2023-03-11T08:13:28;1.00;99.90
31455;DHT22;18084;53.028;8.834;2023-03-11T08:15:54;1.10;99.90
31455;DHT22;18084;53.028;8.834;2023-03-11T08:18:19;1.40;99.90
31455;DHT22;18084;53.028;8.834;2023-03-11T08:20:45;1.40;99.90
31455;DHT22;18084;53.028;8.834;2023-03-11T08:23:11;1.60;99.90
31455;DHT22;18084;53.028;8.834;2023-03-11T08:25:39;1.80;99.90
31455;DHT22;18084;53.028;8.834;2023-03-11T08:28:05;2.00;99.90
31455;DHT22;18084;53.028;8.834;2023-03-11T08:30:32;2.10;99.90
31455;DHT22;18084;53.028;8.834;2023-03-11T08:32:58;2.10;99.90
31455;DHT22;18084;53.028;8.834;2023-03-11T08:35:23;2.30;99.90
31455;DHT22;18084;53.028;8.834;2023-03-11T08:37:50;2.30;99.90
31455;DHT22;18084;53.028;8.834;2023-03-11T08:40:15;2.40;99.90
31455;DHT22;18084;53.028;8.834;2023-03-11T08:42:41;2.60;99.90
31455;DHT22;18084;53.028;8.834;2023-03-11T08:45:07;2.80;99.90
31455;DHT22;18084;53.028;8.834;2023-03-11T08:47:34;3.00;99.90
31455;DHT22;18084;53.028;8.834;2023-03-11T08:50:00;3.20;99.90
31455;DHT22;18084;53.028;8.834;2023-03-11T08:52:26;3.40;99.90
31455;DHT22;18084;53.028;8.834;2023-03-11T08:54:51;3.50;96.40
31455;DHT22;18084;53.028;8.834;2023-03-11T08:57:17;3.90;98.70
31455;DHT22;18084;53.028;8.834;2023-03-11T08:59:42;4.20;93.00
31455;DHT22;18084;53.028;8.834;2023-03-11T09:02:08;4.60;91.30
31455;DHT22;18084;53.028;8.834;2023-03-11T09:04:34;4.80;73.10
31455;DHT22;18084;53.028;8.834;2023-03-11T09:06:59;4.90;58.10
31455;DHT22;18084;53.028;8.834;2023-03-11T09:09:25;5.20;10.00
31455;DHT22;18084;53.028;8.834;2023-03-11T09:11:50;5.80;2.30
31455;DHT22;18084;53.028;8.834;2023-03-11T09:14:16;6.00;1.00
31455;DHT22;18084;53.028;8.834;2023-03-11T09:16:41;6.70;1.00
31455;DHT22;18084;53.028;8.834;2023-03-11T09:19:07;7.00;99.90
31455;DHT22;18084;53.028;8.834;2023-03-11T09:21:35;7.40;99.90
31455;DHT22;18084;53.028;8.834;2023-03-11T09:24:01;7.80;67.10
31455;DHT22;18084;53.028;8.834;2023-03-11T09:26:29;8.10;21.90
31455;DHT22;18084;53.028;8.834;2023-03-11T09:28:55;8.50;93.30
31455;DHT22;18084;53.028;8.834;2023-03-11T09:31:20;8.90;99.90
31455;DHT22;18084;53.028;8.834;2023-03-11T09:33:46;9.40;1.00
31455;DHT22;18084;53.028;8.834;2023-03-11T09:36:12;9.10;99.90
31455;DHT22;18084;53.028;8.834;2023-03-11T09:38:39;9.10;99.90
31455;DHT22;18084;53.028;8.834;2023-03-11T09:41:06;9.10;1.00
31455;DHT22;18084;53.028;8.834;2023-03-11T09:43:34;9.40;99.90
31455;DHT22;18084;53.028;8.834;2023-03-11T09:48:46;9.60;73.60
31455;DHT22;18084;53.028;8.834;2023-03-11T09:51:19;9.40;75.70
31455;DHT22;18084;53.028;8.834;2023-03-11T09:53:47;9.40;99.90
31455;DHT22;18084;53.028;8.834;2023-03-11T09:56:17;9.10;99.90
31455;DHT22;18084;53.028;8.834;2023-03-11T09:58:50;9.30;1.00
31455;DHT22;18084;53.028;8.834;2023-03-11T10:01:18;9.00;99.90
31455;DHT22;18084;53.028;8.834;2023-03-11T10:03:45;9.70;99.90
31455;DHT22;18084;53.028;8.834;2023-03-11T10:06:25;8.10;99.90
31455;DHT22;18084;53.028;8.834;2023-03-11T10:08:58;7.90;97.10
31455;DHT22;18084;53.028;8.834;2023-03-11T10:18:56;7.70;99.90
31455;DHT22;18084;53.028;8.834;2023-03-11T10:21:40;7.60;99.90
31455;DHT22;18084;53.028;8.834;2023-03-11T10:26:49;7.80;99.90
31455;DHT22;18084;53.028;8.834;2023-03-11T10:31:49;7.40;99.90
31455;DHT22;18084;53.028;8.834;2023-03-11T10:34:18;6.70;1.00
31455;DHT22;18084;53.028;8.834;2023-03-11T10:39:17;5.80;1.00
31455;DHT22;18084;53.028;8.834;2023-03-11T10:41:45;5.60;2.40
31455;DHT22;18084;53.028;8.834;2023-03-11T10:44:21;5.80;7.20
31455;DHT22;18084;53.028;8.834;2023-03-11T10:46:49;5.70;1.00
31455;DHT22;18084;53.028;8.834;2023-03-11T10:49:15;5.80;1.00
31455;DHT22;18084;53.028;8.834;2023-03-11T10:51:44;5.70;1.00
31455;DHT22;18084;53.028;8.834;2023-03-11T10:54:19;5.60;11.40
31455;DHT22;18084;53.028;8.834;2023-03-11T10:56:45;5.50;1.00
31455;DHT22;18084;53.028;8.834;2023-03-11T10:59:21;5.50;1.00
31455;DHT22;18084;53.028;8.834;2023-03-11T11:04:39;5.20;1.00
31455;DHT22;18084;53.028;8.834;2023-03-11T11:07:27;5.50;1.00
31455;DHT22;18084;53.028;8.834;2023-03-11T11:10:10;5.60;1.00
31455;DHT22;18084;53.028;8.834;2023-03-11T11:12:37;5.50;1.00
31455;DHT22;18084;53.028;8.834;2023-03-11T11:15:28;5.50;1.00
31455;DHT22;18084;53.028;8.834;2023-03-11T11:17:55;5.30;3.20
31455;DHT22;18084;53.028;8.834;2023-03-11T11:20:22;4.90;1.00
31455;DHT22;18084;53.028;8.834;2023-03-11T11:22:50;4.80;1.00
31455;DHT22;18084;53.028;8.834;2023-03-11T11:25:54;5.10;20.10
31455;DHT22;18084;53.028;8.834;2023-03-11T11:28:17;5.00;1.00
31455;DHT22;18084;53.028;8.834;2023-03-11T11:30:59;5.10;1.00
31455;DHT22;18084;53.028;8.834;2023-03-11T11:35:51;5.30;1.00
31455;DHT22;18084;53.028;8.834;2023-03-11T11:38:17;5.30;1.00
31455;DHT22;18084;53.028;8.834;2023-03-11T11:40:46;5.60;1.00
31455;DHT22;18084;53.028;8.834;2023-03-11T11:43:13;5.50;1.00
31455;DHT22;18084;53.028;8.834;2023-03-11T11:45:41;5.50;1.00
31455;DHT22;18084;53.028;8.834;2023-03-11T11:51:06;5.30;1.00
31455;DHT22;18084;53.028;8.834;2023-03-11T11:53:41;5.20;1.00
31455;DHT22;18084;53.028;8.834;2023-03-11T11:56:08;5.60;1.00
31455;DHT22;18084;53.028;8.834;2023-03-11T11:58:34;5.50;1.00
31455;DHT22;18084;53.028;8.834;2023-03-11T12:01:06;8.10;1.00
31455;DHT22;18084;53.028;8.834;2023-03-11T12:06:16;5.70;1.00
31455;DHT22;18084;53.028;8.834;2023-03-11T12:11:43;5.70;1.00
31455;DHT22;18084;53.028;8.834;2023-03-11T12:14:22;5.70;1.00
31455;DHT22;18084;53.028;8.834;2023-03-11T12:16:54;5.70;1.00
31455;DHT22;18084;53.028;8.834;2023-03-11T12:26:46;6.40;1.00
31455;DHT22;18084;53.028;8.834;2023-03-11T12:31:41;6.10;99.90
31455;DHT22;18084;53.028;8.834;2023-03-11T12:34:11;6.10;1.00
31455;DHT22;18084;53.028;8.834;2023-03-11T12:36:42;6.30;99.90
31455;DHT22;18084;53.028;8.834;2023-03-11T12:39:19;5.80;99.90
31455;DHT22;18084;53.028;8.834;2023-03-11T12:41:45;6.00;99.90
31455;DHT22;18084;53.028;8.834;2023-03-11T12:49:24;5.50;1.00
31455;DHT22;18084;53.028;8.834;2023-03-11T12:54:31;6.40;1.00
31455;DHT22;18084;53.028;8.834;2023-03-11T12:57:02;5.60;1.00
31455;DHT22;18084;53.028;8.834;2023-03-11T13:04:50;5.70;99.90
31455;DHT22;18084;53.028;8.834;2023-03-11T13:12:38;6.20;99.90
31455;DHT22;18084;53.028;8.834;2023-03-11T13:23:19;5.80;99.90
31455;DHT22;18084;53.028;8.834;2023-03-11T13:28:17;5.70;1.00
31455;DHT22;18084;53.028;8.834;2023-03-11T13:30:49;5.90;99.90
31455;DHT22;18084;53.028;8.834;2023-03-11T13:33:20;5.80;99.90
31455;DHT22;18084;53.028;8.834;2023-03-11T13:35:53;5.70;99.90
31455;DHT22;18084;53.028;8.834;2023-03-11T13:40:52;5.90;1.00
31455;DHT22;18084;53.028;8.834;2023-03-11T13:43:20;5.70;99.90
31455;DHT22;18084;53.028;8.834;2023-03-11T13:46:02;5.80;1.00
31455;DHT22;18084;53.028;8.834;2023-03-11T13:48:30;5.80;99.90
31455;DHT22;18084;53.028;8.834;2023-03-11T13:51:07;5.60;99.90
31455;DHT22;18084;53.028;8.834;2023-03-11T13:53:43;5.60;1.00
31455;DHT22;18084;53.028;8.834;2023-03-11T13:56:16;5.60;99.90
31455;DHT22;18084;53.028;8.834;2023-03-11T13:58:42;5.90;1.00
31455;DHT22;18084;53.028;8.834;2023-03-11T14:01:09;5.60;1.00
31455;DHT22;18084;53.028;8.834;2023-03-11T14:03:40;5.40;1.00
31455;DHT22;18084;53.028;8.834;2023-03-11T14:06:07;5.50;1.00
31455;DHT22;18084;53.028;8.834;2023-03-11T14:08:36;5.30;1.00
31455;DHT22;18084;53.028;8.834;2023-03-11T14:13:43;5.40;1.00
31455;DHT22;18084;53.028;8.834;2023-03-11T14:18:35;5.40;1.00
31455;DHT22;18084;53.028;8.834;2023-03-11T14:21:02;5.50;1.00
31455;DHT22;18084;53.028;8.834;2023-03-11T14:23:38;5.30;1.00
31455;DHT22;18084;53.028;8.834;2023-03-11T14:26:08;5.70;1.00
31455;DHT22;18084;53.028;8.834;2023-03-11T14:28:37;5.60;1.00
31455;DHT22;18084;53.028;8.834;2023-03-11T14:31:04;5.50;1.00
31455;DHT22;18084;53.028;8.834;2023-03-11T14:33:29;5.60;1.00
31455;DHT22;18084;53.028;8.834;2023-03-11T14:35:56;5.50;1.00
31455;DHT22;18084;53.028;8.834;2023-03-11T14:38:22;5.30;1.00
31455;DHT22;18084;53.028;8.834;2023-03-11T14:40:52;5.40;1.00
31455;DHT22;18084;53.028;8.834;2023-03-11T14:43:19;5.60;1.00
31455;DHT22;18084;53.028;8.834;2023-03-11T14:45:44;5.30;1.00
31455;DHT22;18084;53.028;8.834;2023-03-11T14:48:13;5.50;1.00
31455;DHT22;18084;53.028;8.834;2023-03-11T14:50:40;5.40;1.00
31455;DHT22;18084;53.028;8.834;2023-03-11T14:55:37;5.40;1.00
31455;DHT22;18084;53.028;8.834;2023-03-11T14:58:12;5.20;1.00
31455;DHT22;18084;53.028;8.834;2023-03-11T15:00:39;5.30;1.00
31455;DHT22;18084;53.028;8.834;2023-03-11T15:03:18;5.30;1.00
31455;DHT22;18084;53.028;8.834;2023-03-11T15:08:14;5.30;1.00
31455;DHT22;18084;53.028;8.834;2023-03-11T15:10:59;5.30;1.00
31455;DHT22;18084;53.028;8.834;2023-03-11T15:13:24;5.30;1.00
31455;DHT22;18084;53.028;8.834;2023-03-11T15:16:00;5.30;1.00
31455;DHT22;18084;53.028;8.834;2023-03-11T15:18:30;5.30;1.00
31455;DHT22;18084;53.028;8.834;2023-03-11T15:21:03;5.30;1.00
31455;DHT22;18084;53.028;8.834;2023-03-11T15:23:30;5.40;1.00
31455;DHT22;18084;53.028;8.834;2023-03-11T15:25:57;5.20;1.00
31455;DHT22;18084;53.028;8.834;2023-03-11T15:28:23;5.10;1.00
31455;DHT22;18084;53.028;8.834;2023-03-11T15:30:49;5.10;1.00
31455;DHT22;18084;53.028;8.834;2023-03-11T15:33:18;5.10;1.00
31455;DHT22;18084;53.028;8.834;2023-03-11T15:35:45;5.20;1.00
31455;DHT22;18084;53.028;8.834;2023-03-11T15:38:20;6.40;1.00
31455;DHT22;18084;53.028;8.834;2023-03-11T15:40:54;5.30;1.00
31455;DHT22;18084;53.028;8.834;2023-03-11T15:43:25;5.20;1.00
31455;DHT22;18084;53.028;8.834;2023-03-11T15:45:51;5.20;1.00
31455;DHT22;18084;53.028;8.834;2023-03-11T15:48:18;5.00;1.00
31455;DHT22;18084;53.028;8.834;2023-03-11T15:50:45;5.10;1.00
31455;DHT22;18084;53.028;8.834;2023-03-11T15:53:13;5.10;1.00
31455;DHT22;18084;53.028;8.834;2023-03-11T15:55:38;5.10;1.00
31455;DHT22;18084;53.028;8.834;2023-03-11T15:58:05;5.00;1.00
31455;DHT22;18084;53.028;8.834;2023-03-11T16:00:30;5.00;1.00
31455;DHT22;18084;53.028;8.834;2023-03-11T16:02:56;4.90;1.00
31455;DHT22;18084;53.028;8.834;2023-03-11T16:05:22;4.70;1.00
31455;DHT22;18084;53.028;8.834;2023-03-11T16:07:48;4.70;1.00
31455;DHT22;18084;53.028;8.834;2023-03-11T16:10:14;4.70;1.00
31455;DHT22;18084;53.028;8.834;2023-03-11T16:12:40;4.80;1.00
31455;DHT22;18084;53.028;8.834;2023-03-11T16:15:29;4.70;1.00
31455;DHT22;18084;53.028;8.834;2023-03-11T16:17:58;4.80;1.00
31455;DHT22;18084;53.028;8.834;2023-03-11T16:20:24;4.80;1.00
31455;DHT22;18084;53.028;8.834;2023-03-11T16:22:51;4.70;1.00
31455;DHT22;18084;53.028;8.834;2023-03-11T16:25:18;6.50;1.00
31455;DHT22;18084;53.028;8.834;2023-03-11T16:27:44;4.60;1.00
31455;DHT22;18084;53.028;8.834;2023-03-11T16:30:11;4.30;1.00
31455;DHT22;18084;53.028;8.834;2023-03-11T16:32:36;4.60;1.00
31455;DHT22;18084;53.028;8.834;2023-03-11T16:35:02;4.40;1.00
31455;DHT22;18084;53.028;8.834;2023-03-11T16:37:27;4.50;1.00
31455;DHT22;18084;53.028;8.834;2023-03-11T16:39:53;4.40;1.00
31455;DHT22;18084;53.028;8.834;2023-03-11T16:42:21;4.30;1.00
31455;DHT22;18084;53.028;8.834;2023-03-11T16:44:48;4.40;1.00
31455;DHT22;18084;53.028;8.834;2023-03-11T16:47:13;4.30;1.00
31455;DHT22;18084;53.028;8.834;2023-03-11T16:49:39;4.30;1.00
31455;DHT22;18084;53.028;8.834;2023-03-11T16:52:04;4.20;1.00
31455;DHT22;18084;53.028;8.834;2023-03-11T16:54:30;4.20;1.00
31455;DHT22;18084;53.028;8.834;2023-03-11T16:56:55;4.30;1.00
31455;DHT22;18084;53.028;8.834;2023-03-11T16:59:20;4.30;1.00
31455;DHT22;18084;53.028;8.834;2023-03-11T17:01:46;4.20;1.00
31455;DHT22;18084;53.028;8.834;2023-03-11T17:04:11;4.20;1.00
31455;DHT22;18084;53.028;8.834;2023-03-11T17:06:37;4.10;1.00
31455;DHT22;18084;53.028;8.834;2023-03-11T17:09:02;4.10;1.00
31455;DHT22;18084;53.028;8.834;2023-03-11T17:11:28;4.20;1.00
31455;DHT22;18084;53.028;8.834;2023-03-11T17:13:55;4.10;1.00
31455;DHT22;18084;53.028;8.834;2023-03-11T17:16:20;4.10;1.00
31455;DHT22;18084;53.028;8.834;2023-03-11T17:18:46;4.10;1.00